sensor_id;sensor_type;location;lat;lon;timestamp;P1;durP1;ratioP1;P2;durP2;ratioP2
12675;SDS011;63820;65.654;21.944;2024-02-16T00:02:42;8.83;;;4.43;;
12675;SDS011;63820;65.654;21.944;2024-02-16T00:05:27;8.60;;;4.70;;
12675;SDS011;63820;65.654;21.944;2024-02-16T00:08:11;7.47;;;4.77;;
12675;SDS011;63820;65.654;21.944;2024-02-16T00:10:56;8.70;;;4.70;;
12675;SDS011;63820;65.654;21.944;2024-02-16T00:13:40;6.67;;;3.00;;
12675;SDS011;63820;65.654;21.944;2024-02-16T00:16:24;4.57;;;3.10;;
12675;SDS011;63820;65.654;21.944;2024-02-16T00:19:08;6.80;;;3.77;;
12675;SDS011;63820;65.654;21.944;2024-02-16T00:21:52;4.77;;;3.47;;
12675;SDS011;63820;65.654;21.944;2024-02-16T00:24:36;6.77;;;4.10;;
12675;SDS011;63820;65.654;21.944;2024-02-16T00:27:21;7.90;;;4.87;;
12675;SDS011;63820;65.654;21.944;2024-02-16T00:30:05;10.33;;;5.83;;
12675;SDS011;63820;65.654;21.944;2024-02-16T00:32:50;9.07;;;5.50;;
12675;SDS011;63820;65.654;21.944;2024-02-16T00:35:34;6.80;;;3.80;;
12675;SDS011;63820;65.654;21.944;2024-02-16T00:38:18;10.13;;;5.27;;
12675;SDS011;63820;65.654;21.944;2024-02-16T00:41:02;11.37;;;5.80;;
12675;SDS011;63820;65.654;21.944;2024-02-16T00:43:46;9.37;;;5.47;;
12675;SDS011;63820;65.654;21.944;2024-02-16T00:46:31;12.70;;;5.73;;
12675;SDS011;63820;65.654;21.944;2024-02-16T00:49:16;9.23;;;5.37;;
12675;SDS011;63820;65.654;21.944;2024-02-16T00:52:00;10.10;;;5.27;;
12675;SDS011;63820;65.654;21.944;2024-02-16T00:54:45;10.47;;;5.97;;
12675;SDS011;63820;65.654;21.944;2024-02-16T00:57:30;11.40;;;6.10;;
12675;SDS011;63820;65.654;21.944;2024-02-16T01:00:14;12.90;;;6.17;;
12675;SDS011;63820;65.654;21.944;2024-02-16T01:02:59;15.20;;;7.00;;
12675;SDS011;63820;65.654;21.944;2024-02-16T01:05:42;13.23;;;6.53;;
12675;SDS011;63820;65.654;21.944;2024-02-16T01:08:26;13.47;;;6.53;;
12675;SDS011;63820;65.654;21.944;2024-02-16T01:11:11;12.30;;;6.07;;
12675;SDS011;63820;65.654;21.944;2024-02-16T01:13:55;10.93;;;5.73;;
12675;SDS011;63820;65.654;21.944;2024-02-16T01:16:39;13.37;;;5.87;;
12675;SDS011;63820;65.654;21.944;2024-02-16T01:19:23;11.83;;;5.90;;
12675;SDS011;63820;65.654;21.944;2024-02-16T01:22:07;15.07;;;6.23;;
12675;SDS011;63820;65.654;21.944;2024-02-16T01:24:51;12.73;;;6.37;;
12675;SDS011;63820;65.654;21.944;2024-02-16T01:27:35;12.67;;;5.70;;
12675;SDS011;63820;65.654;21.944;2024-02-16T01:30:19;13.53;;;7.27;;
12675;SDS011;63820;65.654;21.944;2024-02-16T01:33:05;9.10;;;4.97;;
12675;SDS011;63820;65.654;21.944;2024-02-16T01:35:50;16.00;;;4.80;;
12675;SDS011;63820;65.654;21.944;2024-02-16T01:38:34;10.80;;;5.67;;
12675;SDS011;63820;65.654;21.944;2024-02-16T01:41:18;12.43;;;5.30;;
12675;SDS011;63820;65.654;21.944;2024-02-16T01:44:03;14.63;;;5.80;;
12675;SDS011;63820;65.654;21.944;2024-02-16T01:46:47;12.20;;;5.63;;
12675;SDS011;63820;65.654;21.944;2024-02-16T01:49:32;11.60;;;5.70;;
12675;SDS011;63820;65.654;21.944;2024-02-16T01:52:17;11.10;;;5.83;;
12675;SDS011;63820;65.654;21.944;2024-02-16T01:55:05;10.57;;;5.93;;
12675;SDS011;63820;65.654;21.944;2024-02-16T01:57:56;12.97;;;5.83;;
12675;SDS011;63820;65.654;21.944;2024-02-16T02:00:43;12.23;;;5.23;;
12675;SDS011;63820;65.654;21.944;2024-02-16T02:03:28;11.57;;;5.00;;
12675;SDS011;63820;65.654;21.944;2024-02-16T02:06:12;19.40;;;6.13;;
12675;SDS011;63820;65.654;21.944;2024-02-16T02:08:56;11.97;;;5.77;;
12675;SDS011;63820;65.654;21.944;2024-02-16T02:11:40;11.77;;;5.27;;
12675;SDS011;63820;65.654;21.944;2024-02-16T02:14:24;13.10;;;5.17;;
12675;SDS011;63820;65.654;21.944;2024-02-16T02:17:09;9.43;;;4.97;;
12675;SDS011;63820;65.654;21.944;2024-02-16T02:19:54;11.10;;;5.20;;
12675;SDS011;63820;65.654;21.944;2024-02-16T02:22:38;11.17;;;5.70;;
12675;SDS011;63820;65.654;21.944;2024-02-16T02:25:22;12.57;;;5.40;;
12675;SDS011;63820;65.654;21.944;2024-02-16T02:28:06;8.73;;;5.03;;
12675;SDS011;63820;65.654;21.944;2024-02-16T02:30:50;12.13;;;5.23;;
12675;SDS011;63820;65.654;21.944;2024-02-16T02:33:34;13.27;;;5.00;;
12675;SDS011;63820;65.654;21.944;2024-02-16T02:36:19;11.17;;;4.57;;
12675;SDS011;63820;65.654;21.944;2024-02-16T02:39:03;12.63;;;4.97;;
12675;SDS011;63820;65.654;21.944;2024-02-16T02:41:47;11.47;;;5.77;;
12675;SDS011;63820;65.654;21.944;2024-02-16T02:44:31;12.40;;;4.90;;
12675;SDS011;63820;65.654;21.944;2024-02-16T02:47:16;10.23;;;4.87;;
12675;SDS011;63820;65.654;21.944;2024-02-16T02:50:03;8.47;;;4.40;;
12675;SDS011;63820;65.654;21.944;2024-02-16T02:52:48;5.37;;;3.47;;
12675;SDS011;63820;65.654;21.944;2024-02-16T02:55:32;6.83;;;3.33;;
12675;SDS011;63820;65.654;21.944;2024-02-16T02:58:16;10.47;;;4.20;;
12675;SDS011;63820;65.654;21.944;2024-02-16T03:01:01;5.53;;;3.23;;
12675;SDS011;63820;65.654;21.944;2024-02-16T03:03:45;6.10;;;2.93;;
12675;SDS011;63820;65.654;21.944;2024-02-16T03:06:30;10.60;;;3.23;;
12675;SDS011;63820;65.654;21.944;2024-02-16T03:09:14;8.83;;;3.53;;
12675;SDS011;63820;65.654;21.944;2024-02-16T03:11:58;5.90;;;3.07;;
12675;SDS011;63820;65.654;21.944;2024-02-16T03:14:42;7.70;;;3.20;;
12675;SDS011;63820;65.654;21.944;2024-02-16T03:17:26;7.87;;;2.50;;
12675;SDS011;63820;65.654;21.944;2024-02-16T03:20:10;8.83;;;2.77;;
12675;SDS011;63820;65.654;21.944;2024-02-16T03:22:55;7.67;;;3.20;;
12675;SDS011;63820;65.654;21.944;2024-02-16T03:25:40;8.93;;;3.23;;
12675;SDS011;63820;65.654;21.944;2024-02-16T03:28:24;6.70;;;2.63;;
12675;SDS011;63820;65.654;21.944;2024-02-16T03:31:14;4.37;;;2.50;;
12675;SDS011;63820;65.654;21.944;2024-02-16T03:34:05;5.77;;;2.27;;
12675;SDS011;63820;65.654;21.944;2024-02-16T03:36:49;4.77;;;2.67;;
12675;SDS011;63820;65.654;21.944;2024-02-16T03:39:33;7.73;;;2.77;;
12675;SDS011;63820;65.654;21.944;2024-02-16T03:42:17;7.37;;;3.07;;
12675;SDS011;63820;65.654;21.944;2024-02-16T03:45:03;5.30;;;2.73;;
12675;SDS011;63820;65.654;21.944;2024-02-16T03:47:47;6.10;;;3.10;;
12675;SDS011;63820;65.654;21.944;2024-02-16T03:50:36;7.73;;;2.80;;
12675;SDS011;63820;65.654;21.944;2024-02-16T03:53:20;9.90;;;3.03;;
12675;SDS011;63820;65.654;21.944;2024-02-16T03:56:04;4.33;;;2.37;;
12675;SDS011;63820;65.654;21.944;2024-02-16T03:58:49;5.70;;;1.93;;
12675;SDS011;63820;65.654;21.944;2024-02-16T04:01:33;4.97;;;2.57;;
12675;SDS011;63820;65.654;21.944;2024-02-16T04:04:17;5.03;;;2.33;;
12675;SDS011;63820;65.654;21.944;2024-02-16T04:07:02;7.17;;;2.73;;
12675;SDS011;63820;65.654;21.944;2024-02-16T04:09:47;5.77;;;3.00;;
12675;SDS011;63820;65.654;21.944;2024-02-16T04:12:31;5.73;;;2.83;;
12675;SDS011;63820;65.654;21.944;2024-02-16T04:15:15;4.57;;;2.80;;
12675;SDS011;63820;65.654;21.944;2024-02-16T04:17:59;6.10;;;2.67;;
12675;SDS011;63820;65.654;21.944;2024-02-16T04:20:43;5.50;;;2.97;;
12675;SDS011;63820;65.654;21.944;2024-02-16T04:23:27;7.93;;;3.20;;
12675;SDS011;63820;65.654;21.944;2024-02-16T04:26:11;4.53;;;2.50;;
12675;SDS011;63820;65.654;21.944;2024-02-16T04:28:56;3.90;;;2.40;;
12675;SDS011;63820;65.654;21.944;2024-02-16T04:31:40;4.90;;;2.30;;
12675;SDS011;63820;65.654;21.944;2024-02-16T04:34:25;3.70;;;2.03;;
12675;SDS011;63820;65.654;21.944;2024-02-16T04:37:09;5.60;;;2.60;;
12675;SDS011;63820;65.654;21.944;2024-02-16T04:39:53;5.73;;;2.50;;
12675;SDS011;63820;65.654;21.944;2024-02-16T04:42:38;4.53;;;2.40;;
12675;SDS011;63820;65.654;21.944;2024-02-16T04:45:24;4.77;;;2.47;;
12675;SDS011;63820;65.654;21.944;2024-02-16T04:48:08;3.10;;;2.13;;
12675;SDS011;63820;65.654;21.944;2024-02-16T04:50:52;5.63;;;2.60;;
12675;SDS011;63820;65.654;21.944;2024-02-16T04:53:36;4.10;;;2.63;;
12675;SDS011;63820;65.654;21.944;2024-02-16T04:56:20;4.70;;;2.50;;
12675;SDS011;63820;65.654;21.944;2024-02-16T04:59:04;4.27;;;2.17;;
12675;SDS011;63820;65.654;21.944;2024-02-16T05:01:49;5.27;;;2.20;;
12675;SDS011;63820;65.654;21.944;2024-02-16T05:04:33;4.30;;;2.43;;
12675;SDS011;63820;65.654;21.944;2024-02-16T05:07:18;4.17;;;2.30;;
12675;SDS011;63820;65.654;21.944;2024-02-16T05:10:03;6.10;;;2.80;;
12675;SDS011;63820;65.654;21.944;2024-02-16T05:12:52;6.03;;;2.50;;
12675;SDS011;63820;65.654;21.944;2024-02-16T05:15:36;5.70;;;2.60;;
12675;SDS011;63820;65.654;21.944;2024-02-16T05:18:21;11.27;;;2.70;;
12675;SDS011;63820;65.654;21.944;2024-02-16T05:21:06;6.20;;;2.40;;
12675;SDS011;63820;65.654;21.944;2024-02-16T05:23:50;7.07;;;3.00;;
12675;SDS011;63820;65.654;21.944;2024-02-16T05:26:34;4.67;;;2.50;;
12675;SDS011;63820;65.654;21.944;2024-02-16T05:29:18;4.97;;;2.23;;
12675;SDS011;63820;65.654;21.944;2024-02-16T05:32:02;3.20;;;2.00;;
12675;SDS011;63820;65.654;21.944;2024-02-16T05:34:46;3.47;;;1.70;;
12675;SDS011;63820;65.654;21.944;2024-02-16T05:37:30;2.53;;;1.67;;
12675;SDS011;63820;65.654;21.944;2024-02-16T05:40:18;3.27;;;2.03;;
12675;SDS011;63820;65.654;21.944;2024-02-16T05:43:11;4.63;;;1.67;;
12675;SDS011;63820;65.654;21.944;2024-02-16T05:45:55;3.13;;;1.90;;
12675;SDS011;63820;65.654;21.944;2024-02-16T05:48:39;2.87;;;1.80;;
12675;SDS011;63820;65.654;21.944;2024-02-16T05:51:23;4.50;;;2.20;;
12675;SDS011;63820;65.654;21.944;2024-02-16T05:54:08;2.50;;;1.60;;
12675;SDS011;63820;65.654;21.944;2024-02-16T05:56:52;2.67;;;1.90;;
12675;SDS011;63820;65.654;21.944;2024-02-16T05:59:36;2.60;;;1.90;;
12675;SDS011;63820;65.654;21.944;2024-02-16T06:02:21;2.67;;;1.77;;
12675;SDS011;63820;65.654;21.944;2024-02-16T06:05:09;3.00;;;1.70;;
12675;SDS011;63820;65.654;21.944;2024-02-16T06:07:54;3.00;;;1.80;;
12675;SDS011;63820;65.654;21.944;2024-02-16T06:10:40;3.53;;;2.20;;
12675;SDS011;63820;65.654;21.944;2024-02-16T06:13:25;2.20;;;1.60;;
12675;SDS011;63820;65.654;21.944;2024-02-16T06:16:09;2.30;;;1.47;;
12675;SDS011;63820;65.654;21.944;2024-02-16T06:18:54;3.20;;;1.70;;
12675;SDS011;63820;65.654;21.944;2024-02-16T06:21:39;2.67;;;1.80;;
12675;SDS011;63820;65.654;21.944;2024-02-16T06:24:23;3.10;;;1.90;;
12675;SDS011;63820;65.654;21.944;2024-02-16T06:27:07;4.33;;;2.10;;
12675;SDS011;63820;65.654;21.944;2024-02-16T06:29:51;4.37;;;2.43;;
12675;SDS011;63820;65.654;21.944;2024-02-16T06:32:35;4.17;;;2.00;;
12675;SDS011;63820;65.654;21.944;2024-02-16T06:35:19;3.83;;;2.20;;
12675;SDS011;63820;65.654;21.944;2024-02-16T06:38:04;3.23;;;2.20;;
12675;SDS011;63820;65.654;21.944;2024-02-16T06:40:48;3.70;;;2.40;;
12675;SDS011;63820;65.654;21.944;2024-02-16T06:43:32;3.43;;;2.00;;
12675;SDS011;63820;65.654;21.944;2024-02-16T06:46:16;3.53;;;2.10;;
12675;SDS011;63820;65.654;21.944;2024-02-16T06:49:00;3.13;;;1.97;;
12675;SDS011;63820;65.654;21.944;2024-02-16T06:51:43;3.27;;;2.13;;
12675;SDS011;63820;65.654;21.944;2024-02-16T06:54:29;3.20;;;2.27;;
12675;SDS011;63820;65.654;21.944;2024-02-16T06:57:13;4.60;;;2.50;;
12675;SDS011;63820;65.654;21.944;2024-02-16T06:59:57;4.00;;;2.30;;
12675;SDS011;63820;65.654;21.944;2024-02-16T07:02:42;5.53;;;2.40;;
12675;SDS011;63820;65.654;21.944;2024-02-16T07:05:26;3.30;;;1.87;;
12675;SDS011;63820;65.654;21.944;2024-02-16T07:08:11;3.83;;;2.23;;
12675;SDS011;63820;65.654;21.944;2024-02-16T07:10:56;3.40;;;2.00;;
12675;SDS011;63820;65.654;21.944;2024-02-16T07:13:40;4.13;;;2.13;;
12675;SDS011;63820;65.654;21.944;2024-02-16T07:16:26;2.10;;;1.50;;
12675;SDS011;63820;65.654;21.944;2024-02-16T07:19:10;2.47;;;1.50;;
12675;SDS011;63820;65.654;21.944;2024-02-16T07:21:55;3.00;;;1.60;;
12675;SDS011;63820;65.654;21.944;2024-02-16T07:24:39;4.43;;;1.60;;
12675;SDS011;63820;65.654;21.944;2024-02-16T07:27:23;1.40;;;1.30;;
12675;SDS011;63820;65.654;21.944;2024-02-16T07:30:07;2.30;;;1.33;;
12675;SDS011;63820;65.654;21.944;2024-02-16T07:32:51;2.50;;;1.50;;
12675;SDS011;63820;65.654;21.944;2024-02-16T07:35:36;2.40;;;1.40;;
12675;SDS011;63820;65.654;21.944;2024-02-16T07:38:22;2.27;;;1.40;;
12675;SDS011;63820;65.654;21.944;2024-02-16T07:41:06;1.87;;;1.40;;
12675;SDS011;63820;65.654;21.944;2024-02-16T07:43:50;1.50;;;1.40;;
12675;SDS011;63820;65.654;21.944;2024-02-16T07:46:39;1.43;;;1.13;;
12675;SDS011;63820;65.654;21.944;2024-02-16T07:49:24;2.10;;;1.33;;
12675;SDS011;63820;65.654;21.944;2024-02-16T07:52:08;1.73;;;1.43;;
12675;SDS011;63820;65.654;21.944;2024-02-16T07:54:53;4.57;;;1.70;;
12675;SDS011;63820;65.654;21.944;2024-02-16T07:57:36;3.03;;;1.60;;
12675;SDS011;63820;65.654;21.944;2024-02-16T08:00:21;2.43;;;1.70;;
12675;SDS011;63820;65.654;21.944;2024-02-16T08:03:05;3.20;;;2.00;;
12675;SDS011;63820;65.654;21.944;2024-02-16T08:05:50;1.80;;;1.50;;
12675;SDS011;63820;65.654;21.944;2024-02-16T08:08:34;2.30;;;1.70;;
12675;SDS011;63820;65.654;21.944;2024-02-16T08:11:18;3.30;;;1.90;;
12675;SDS011;63820;65.654;21.944;2024-02-16T08:14:03;2.90;;;1.90;;
12675;SDS011;63820;65.654;21.944;2024-02-16T08:16:47;2.37;;;1.70;;
12675;SDS011;63820;65.654;21.944;2024-02-16T08:19:33;3.17;;;1.80;;
12675;SDS011;63820;65.654;21.944;2024-02-16T08:22:18;3.67;;;2.07;;
12675;SDS011;63820;65.654;21.944;2024-02-16T08:25:02;3.80;;;1.87;;
12675;SDS011;63820;65.654;21.944;2024-02-16T08:27:47;3.17;;;1.93;;
12675;SDS011;63820;65.654;21.944;2024-02-16T08:30:33;3.27;;;1.93;;
12675;SDS011;63820;65.654;21.944;2024-02-16T08:33:17;3.90;;;2.13;;
12675;SDS011;63820;65.654;21.944;2024-02-16T08:36:01;3.53;;;2.23;;
12675;SDS011;63820;65.654;21.944;2024-02-16T08:38:45;2.60;;;2.17;;
12675;SDS011;63820;65.654;21.944;2024-02-16T08:41:29;2.43;;;1.80;;
12675;SDS011;63820;65.654;21.944;2024-02-16T08:44:13;3.73;;;1.90;;
12675;SDS011;63820;65.654;21.944;2024-02-16T08:46:57;3.10;;;2.27;;
12675;SDS011;63820;65.654;21.944;2024-02-16T08:49:41;2.33;;;1.70;;
12675;SDS011;63820;65.654;21.944;2024-02-16T08:52:26;2.03;;;1.50;;
12675;SDS011;63820;65.654;21.944;2024-02-16T08:55:10;1.93;;;1.40;;
12675;SDS011;63820;65.654;21.944;2024-02-16T08:57:54;2.40;;;1.80;;
12675;SDS011;63820;65.654;21.944;2024-02-16T09:00:38;1.70;;;1.50;;
12675;SDS011;63820;65.654;21.944;2024-02-16T09:03:22;2.10;;;1.23;;
12675;SDS011;63820;65.654;21.944;2024-02-16T09:06:08;1.83;;;1.63;;
12675;SDS011;63820;65.654;21.944;2024-02-16T09:08:52;2.37;;;1.73;;
12675;SDS011;63820;65.654;21.944;2024-02-16T09:11:36;2.73;;;1.50;;
12675;SDS011;63820;65.654;21.944;2024-02-16T09:14:20;2.63;;;1.40;;
12675;SDS011;63820;65.654;21.944;2024-02-16T09:17:04;2.67;;;1.90;;
12675;SDS011;63820;65.654;21.944;2024-02-16T09:19:48;2.67;;;1.60;;
12675;SDS011;63820;65.654;21.944;2024-02-16T09:22:31;2.33;;;1.87;;
12675;SDS011;63820;65.654;21.944;2024-02-16T09:25:15;3.60;;;1.80;;
12675;SDS011;63820;65.654;21.944;2024-02-16T09:28:00;2.20;;;1.50;;
12675;SDS011;63820;65.654;21.944;2024-02-16T09:30:44;2.27;;;1.40;;
12675;SDS011;63820;65.654;21.944;2024-02-16T09:33:29;1.53;;;1.40;;
12675;SDS011;63820;65.654;21.944;2024-02-16T09:36:13;1.70;;;1.47;;
12675;SDS011;63820;65.654;21.944;2024-02-16T09:38:57;2.73;;;1.70;;
12675;SDS011;63820;65.654;21.944;2024-02-16T09:41:41;3.13;;;2.17;;
12675;SDS011;63820;65.654;21.944;2024-02-16T09:44:29;2.87;;;2.10;;
12675;SDS011;63820;65.654;21.944;2024-02-16T09:47:14;4.07;;;2.30;;
12675;SDS011;63820;65.654;21.944;2024-02-16T09:50:03;3.00;;;2.10;;
12675;SDS011;63820;65.654;21.944;2024-02-16T09:52:48;2.57;;;1.93;;
12675;SDS011;63820;65.654;21.944;2024-02-16T09:55:33;2.57;;;2.00;;
12675;SDS011;63820;65.654;21.944;2024-02-16T09:58:17;2.97;;;2.20;;
12675;SDS011;63820;65.654;21.944;2024-02-16T10:01:02;4.10;;;2.20;;
12675;SDS011;63820;65.654;21.944;2024-02-16T10:03:47;3.17;;;2.17;;
12675;SDS011;63820;65.654;21.944;2024-02-16T10:06:33;5.30;;;2.87;;
12675;SDS011;63820;65.654;21.944;2024-02-16T10:09:23;6.20;;;2.70;;
12675;SDS011;63820;65.654;21.944;2024-02-16T10:12:19;4.30;;;2.83;;
12675;SDS011;63820;65.654;21.944;2024-02-16T10:15:03;4.80;;;3.13;;
12675;SDS011;63820;65.654;21.944;2024-02-16T10:21:03;4.67;;;3.20;;
12675;SDS011;63820;65.654;21.944;2024-02-16T10:24:01;5.37;;;3.60;;
12675;SDS011;63820;65.654;21.944;2024-02-16T10:26:54;6.63;;;3.87;;
12675;SDS011;63820;65.654;21.944;2024-02-16T10:29:38;5.37;;;3.63;;
12675;SDS011;63820;65.654;21.944;2024-02-16T10:32:25;8.43;;;3.80;;
12675;SDS011;63820;65.654;21.944;2024-02-16T10:35:10;5.97;;;3.53;;
12675;SDS011;63820;65.654;21.944;2024-02-16T10:37:55;6.50;;;3.53;;
12675;SDS011;63820;65.654;21.944;2024-02-16T10:40:41;5.63;;;3.43;;
12675;SDS011;63820;65.654;21.944;2024-02-16T10:43:26;5.07;;;3.60;;
12675;SDS011;63820;65.654;21.944;2024-02-16T10:46:10;7.40;;;3.53;;
12675;SDS011;63820;65.654;21.944;2024-02-16T10:48:54;6.13;;;3.43;;
12675;SDS011;63820;65.654;21.944;2024-02-16T10:51:40;6.10;;;3.70;;
12675;SDS011;63820;65.654;21.944;2024-02-16T10:54:30;5.83;;;3.87;;
12675;SDS011;63820;65.654;21.944;2024-02-16T10:57:17;5.43;;;3.57;;
12675;SDS011;63820;65.654;21.944;2024-02-16T11:00:06;6.00;;;3.57;;
12675;SDS011;63820;65.654;21.944;2024-02-16T11:02:54;6.00;;;3.70;;
12675;SDS011;63820;65.654;21.944;2024-02-16T11:05:45;7.07;;;3.93;;
12675;SDS011;63820;65.654;21.944;2024-02-16T11:08:30;7.47;;;3.87;;
12675;SDS011;63820;65.654;21.944;2024-02-16T11:11:22;7.93;;;4.07;;
12675;SDS011;63820;65.654;21.944;2024-02-16T11:14:50;7.73;;;3.37;;
12675;SDS011;63820;65.654;21.944;2024-02-16T11:17:22;6.47;;;3.57;;
12675;SDS011;63820;65.654;21.944;2024-02-16T11:20:07;5.10;;;3.23;;
12675;SDS011;63820;65.654;21.944;2024-02-16T11:22:52;7.67;;;3.60;;
12675;SDS011;63820;65.654;21.944;2024-02-16T11:25:39;5.17;;;2.93;;
12675;SDS011;63820;65.654;21.944;2024-02-16T11:28:23;6.23;;;3.37;;
12675;SDS011;63820;65.654;21.944;2024-02-16T11:31:08;5.83;;;2.63;;
12675;SDS011;63820;65.654;21.944;2024-02-16T11:33:53;4.53;;;2.50;;
12675;SDS011;63820;65.654;21.944;2024-02-16T11:36:37;6.00;;;2.50;;
12675;SDS011;63820;65.654;21.944;2024-02-16T11:39:21;3.63;;;2.20;;
12675;SDS011;63820;65.654;21.944;2024-02-16T11:42:11;3.33;;;1.93;;
12675;SDS011;63820;65.654;21.944;2024-02-16T11:44:56;3.43;;;1.80;;
12675;SDS011;63820;65.654;21.944;2024-02-16T11:47:40;3.67;;;2.00;;
12675;SDS011;63820;65.654;21.944;2024-02-16T11:50:25;4.53;;;2.17;;
12675;SDS011;63820;65.654;21.944;2024-02-16T11:53:10;4.33;;;2.10;;
12675;SDS011;63820;65.654;21.944;2024-02-16T11:55:59;3.17;;;1.70;;
12675;SDS011;63820;65.654;21.944;2024-02-16T11:58:43;3.77;;;2.00;;
12675;SDS011;63820;65.654;21.944;2024-02-16T12:01:27;2.23;;;2.00;;
12675;SDS011;63820;65.654;21.944;2024-02-16T12:04:19;2.10;;;1.43;;
12675;SDS011;63820;65.654;21.944;2024-02-16T12:07:07;2.63;;;1.50;;
12675;SDS011;63820;65.654;21.944;2024-02-16T12:10:09;1.73;;;1.63;;
12675;SDS011;63820;65.654;21.944;2024-02-16T12:12:55;4.37;;;1.50;;
12675;SDS011;63820;65.654;21.944;2024-02-16T12:15:39;3.97;;;1.70;;
12675;SDS011;63820;65.654;21.944;2024-02-16T12:18:23;3.60;;;1.67;;
12675;SDS011;63820;65.654;21.944;2024-02-16T12:21:09;3.17;;;1.70;;
12675;SDS011;63820;65.654;21.944;2024-02-16T12:23:53;4.90;;;1.60;;
12675;SDS011;63820;65.654;21.944;2024-02-16T12:26:37;4.03;;;1.93;;
12675;SDS011;63820;65.654;21.944;2024-02-16T12:29:21;3.53;;;2.10;;
12675;SDS011;63820;65.654;21.944;2024-02-16T12:32:06;2.80;;;2.07;;
12675;SDS011;63820;65.654;21.944;2024-02-16T12:34:53;5.40;;;2.40;;
12675;SDS011;63820;65.654;21.944;2024-02-16T12:37:36;4.63;;;2.63;;
12675;SDS011;63820;65.654;21.944;2024-02-16T12:40:21;4.43;;;2.93;;
12675;SDS011;63820;65.654;21.944;2024-02-16T12:43:05;6.70;;;3.40;;
12675;SDS011;63820;65.654;21.944;2024-02-16T12:45:50;6.00;;;3.10;;
12675;SDS011;63820;65.654;21.944;2024-02-16T12:48:34;9.50;;;3.97;;
12675;SDS011;63820;65.654;21.944;2024-02-16T12:51:18;9.50;;;3.60;;
12675;SDS011;63820;65.654;21.944;2024-02-16T12:54:03;8.77;;;4.07;;
12675;SDS011;63820;65.654;21.944;2024-02-16T12:56:50;11.67;;;4.37;;
12675;SDS011;63820;65.654;21.944;2024-02-16T12:59:35;9.93;;;5.13;;
12675;SDS011;63820;65.654;21.944;2024-02-16T13:02:19;7.03;;;3.43;;
12675;SDS011;63820;65.654;21.944;2024-02-16T13:05:04;12.50;;;6.30;;
12675;SDS011;63820;65.654;21.944;2024-02-16T13:07:49;15.90;;;7.50;;
12675;SDS011;63820;65.654;21.944;2024-02-16T13:10:33;20.37;;;8.10;;
12675;SDS011;63820;65.654;21.944;2024-02-16T13:13:18;18.50;;;7.97;;
12675;SDS011;63820;65.654;21.944;2024-02-16T13:16:02;15.77;;;7.40;;
12675;SDS011;63820;65.654;21.944;2024-02-16T13:18:46;16.40;;;6.67;;
12675;SDS011;63820;65.654;21.944;2024-02-16T13:21:30;18.10;;;8.17;;
12675;SDS011;63820;65.654;21.944;2024-02-16T13:24:14;12.23;;;5.93;;
12675;SDS011;63820;65.654;21.944;2024-02-16T13:26:59;16.83;;;7.40;;
12675;SDS011;63820;65.654;21.944;2024-02-16T13:29:43;14.53;;;6.33;;
12675;SDS011;63820;65.654;21.944;2024-02-16T13:32:27;16.53;;;7.10;;
12675;SDS011;63820;65.654;21.944;2024-02-16T13:35:11;15.40;;;6.93;;
12675;SDS011;63820;65.654;21.944;2024-02-16T13:37:57;13.53;;;5.70;;
12675;SDS011;63820;65.654;21.944;2024-02-16T13:40:40;11.63;;;6.13;;
12675;SDS011;63820;65.654;21.944;2024-02-16T13:43:26;14.37;;;6.40;;
12675;SDS011;63820;65.654;21.944;2024-02-16T13:46:11;10.30;;;5.43;;
12675;SDS011;63820;65.654;21.944;2024-02-16T13:48:55;10.77;;;5.53;;
12675;SDS011;63820;65.654;21.944;2024-02-16T13:51:41;11.60;;;6.23;;
12675;SDS011;63820;65.654;21.944;2024-02-16T13:54:25;12.90;;;6.70;;
12675;SDS011;63820;65.654;21.944;2024-02-16T13:57:10;11.37;;;5.93;;
12675;SDS011;63820;65.654;21.944;2024-02-16T13:59:54;12.03;;;6.30;;
12675;SDS011;63820;65.654;21.944;2024-02-16T14:02:38;11.17;;;5.93;;
12675;SDS011;63820;65.654;21.944;2024-02-16T14:05:22;12.83;;;6.80;;
12675;SDS011;63820;65.654;21.944;2024-02-16T14:08:09;11.73;;;6.40;;
12675;SDS011;63820;65.654;21.944;2024-02-16T14:10:54;13.67;;;6.70;;
12675;SDS011;63820;65.654;21.944;2024-02-16T14:13:38;11.27;;;5.60;;
12675;SDS011;63820;65.654;21.944;2024-02-16T14:16:22;13.63;;;7.27;;
12675;SDS011;63820;65.654;21.944;2024-02-16T14:19:06;10.53;;;5.57;;
12675;SDS011;63820;65.654;21.944;2024-02-16T14:21:50;11.20;;;5.90;;
12675;SDS011;63820;65.654;21.944;2024-02-16T14:24:34;12.10;;;6.33;;
12675;SDS011;63820;65.654;21.944;2024-02-16T14:27:19;13.47;;;6.00;;
12675;SDS011;63820;65.654;21.944;2024-02-16T14:30:03;11.90;;;6.27;;
12675;SDS011;63820;65.654;21.944;2024-02-16T14:32:47;11.40;;;5.87;;
12675;SDS011;63820;65.654;21.944;2024-02-16T14:35:31;11.53;;;5.73;;
12675;SDS011;63820;65.654;21.944;2024-02-16T14:38:19;7.70;;;4.50;;
12675;SDS011;63820;65.654;21.944;2024-02-16T14:41:03;9.97;;;5.53;;
12675;SDS011;63820;65.654;21.944;2024-02-16T14:43:49;6.90;;;3.63;;
12675;SDS011;63820;65.654;21.944;2024-02-16T14:46:34;11.50;;;6.17;;
12675;SDS011;63820;65.654;21.944;2024-02-16T14:49:18;10.87;;;5.07;;
12675;SDS011;63820;65.654;21.944;2024-02-16T14:52:05;10.70;;;5.50;;
12675;SDS011;63820;65.654;21.944;2024-02-16T14:54:50;9.97;;;5.63;;
12675;SDS011;63820;65.654;21.944;2024-02-16T14:57:34;12.30;;;6.40;;
12675;SDS011;63820;65.654;21.944;2024-02-16T15:00:18;15.80;;;6.37;;
12675;SDS011;63820;65.654;21.944;2024-02-16T15:03:03;11.87;;;6.40;;
12675;SDS011;63820;65.654;21.944;2024-02-16T15:05:48;13.20;;;6.50;;
12675;SDS011;63820;65.654;21.944;2024-02-16T15:08:32;11.57;;;5.87;;
12675;SDS011;63820;65.654;21.944;2024-02-16T15:11:16;13.20;;;6.67;;
12675;SDS011;63820;65.654;21.944;2024-02-16T15:14:00;10.97;;;5.67;;
12675;SDS011;63820;65.654;21.944;2024-02-16T15:16:45;13.07;;;6.60;;
12675;SDS011;63820;65.654;21.944;2024-02-16T15:19:29;13.60;;;6.53;;
12675;SDS011;63820;65.654;21.944;2024-02-16T15:22:13;13.93;;;6.93;;
12675;SDS011;63820;65.654;21.944;2024-02-16T15:24:57;13.90;;;6.17;;
12675;SDS011;63820;65.654;21.944;2024-02-16T15:27:41;14.27;;;6.80;;
12675;SDS011;63820;65.654;21.944;2024-02-16T15:30:25;9.63;;;4.37;;
12675;SDS011;63820;65.654;21.944;2024-02-16T15:33:09;11.73;;;6.60;;
12675;SDS011;63820;65.654;21.944;2024-02-16T15:35:53;10.33;;;5.43;;
12675;SDS011;63820;65.654;21.944;2024-02-16T15:38:37;13.43;;;6.37;;
12675;SDS011;63820;65.654;21.944;2024-02-16T15:41:21;12.17;;;6.30;;
12675;SDS011;63820;65.654;21.944;2024-02-16T15:44:06;14.33;;;6.33;;
12675;SDS011;63820;65.654;21.944;2024-02-16T15:46:50;12.30;;;6.13;;
12675;SDS011;63820;65.654;21.944;2024-02-16T15:49:34;12.47;;;5.90;;
12675;SDS011;63820;65.654;21.944;2024-02-16T15:52:18;10.80;;;6.10;;
12675;SDS011;63820;65.654;21.944;2024-02-16T15:55:03;12.23;;;6.20;;
12675;SDS011;63820;65.654;21.944;2024-02-16T15:57:47;13.47;;;6.47;;
12675;SDS011;63820;65.654;21.944;2024-02-16T16:00:31;12.10;;;6.43;;
12675;SDS011;63820;65.654;21.944;2024-02-16T16:03:15;11.23;;;6.10;;
12675;SDS011;63820;65.654;21.944;2024-02-16T16:05:59;12.33;;;5.70;;
12675;SDS011;63820;65.654;21.944;2024-02-16T16:08:43;11.77;;;6.00;;
12675;SDS011;63820;65.654;21.944;2024-02-16T16:11:28;14.33;;;6.77;;
12675;SDS011;63820;65.654;21.944;2024-02-16T16:14:14;12.57;;;6.07;;
12675;SDS011;63820;65.654;21.944;2024-02-16T16:16:58;12.90;;;6.20;;
12675;SDS011;63820;65.654;21.944;2024-02-16T16:19:44;11.27;;;6.03;;